createdAt,value
2023-02-02T00:00:03.491Z,2.40
2023-02-02T00:01:03.431Z,2.40
2023-02-02T00:02:03.475Z,2.30
2023-02-02T00:03:03.522Z,2.40
2023-02-02T00:04:03.544Z,2.30
2023-02-02T00:05:03.420Z,2.30
2023-02-02T00:06:03.391Z,2.30
2023-02-02T00:07:03.398Z,2.30
2023-02-02T00:08:03.260Z,2.30
2023-02-02T00:09:03.351Z,2.30
2023-02-02T00:10:03.278Z,2.30
2023-02-02T00:11:03.194Z,2.30
2023-02-02T00:12:03.084Z,2.30
2023-02-02T00:13:03.049Z,2.30
2023-02-02T00:14:03.088Z,2.30
2023-02-02T00:15:02.976Z,2.30
2023-02-02T00:16:02.941Z,2.30
2023-02-02T00:17:03.034Z,2.30
2023-02-02T00:18:03.012Z,2.30
2023-02-02T00:19:02.924Z,2.30
2023-02-02T00:20:02.915Z,2.30
2023-02-02T00:21:02.874Z,2.30
2023-02-02T00:22:02.835Z,2.30
2023-02-02T00:23:02.885Z,2.30
2023-02-02T00:24:02.897Z,2.30
2023-02-02T00:25:02.729Z,2.30
2023-02-02T00:26:02.684Z,2.30
2023-02-02T00:27:02.713Z,2.30
2023-02-02T00:28:02.712Z,2.30
2023-02-02T00:29:02.632Z,2.30
2023-02-02T00:30:03.545Z,2.40
2023-02-02T00:31:03.564Z,2.40
2023-02-02T00:32:02.685Z,2.30
2023-02-02T00:33:02.632Z,2.30
2023-02-02T00:34:03.590Z,2.30
2023-02-02T00:35:03.537Z,2.30
2023-02-02T00:36:03.401Z,2.40
2023-02-02T00:37:03.369Z,2.40
2023-02-02T00:38:03.323Z,2.40
2023-02-02T00:39:03.340Z,2.40
2023-02-02T00:40:03.326Z,2.40
2023-02-02T00:41:03.245Z,2.40
2023-02-02T00:42:03.238Z,2.40
2023-02-02T00:43:03.291Z,2.40
2023-02-02T00:44:03.220Z,2.40
2023-02-02T00:45:03.211Z,2.40
2023-02-02T00:46:02.935Z,2.40
2023-02-02T00:47:02.905Z,2.40
2023-02-02T00:48:02.778Z,2.40
2023-02-02T00:49:02.708Z,2.40
2023-02-02T00:50:02.739Z,2.40
2023-02-02T00:51:02.676Z,2.40
2023-02-02T00:52:02.694Z,2.40
2023-02-02T00:53:02.590Z,2.40
2023-02-02T00:54:03.595Z,2.40
2023-02-02T00:55:03.560Z,2.40
2023-02-02T00:56:03.537Z,2.40
2023-02-02T00:57:03.593Z,2.40
2023-02-02T00:58:03.520Z,2.40
2023-02-02T00:59:03.483Z,2.50
2023-02-02T01:00:03.418Z,2.40
2023-02-02T01:01:03.600Z,2.50
2023-02-02T01:02:03.516Z,2.50
2023-02-02T01:03:02.650Z,2.50
2023-02-02T01:04:02.653Z,2.50
2023-02-02T01:05:02.734Z,2.50
2023-02-02T01:06:02.649Z,2.50
2023-02-02T01:07:03.554Z,2.50
2023-02-02T01:08:03.462Z,2.50
2023-02-02T01:09:03.610Z,2.50
2023-02-02T01:10:03.742Z,2.50
2023-02-02T01:11:02.795Z,2.50
2023-02-02T01:12:02.792Z,2.50
2023-02-02T01:13:02.794Z,2.50
2023-02-02T01:14:02.781Z,2.50
2023-02-02T01:15:02.763Z,2.50
2023-02-02T01:16:02.790Z,2.50
2023-02-02T01:17:02.831Z,2.50
2023-02-02T01:18:02.765Z,2.50
2023-02-02T01:19:02.678Z,2.50
2023-02-02T01:20:02.744Z,2.50
2023-02-02T01:21:02.594Z,2.50
2023-02-02T01:22:03.546Z,2.50
2023-02-02T01:23:02.636Z,2.50
2023-02-02T01:24:03.560Z,2.50
2023-02-02T01:25:03.573Z,2.50
2023-02-02T01:26:03.569Z,2.50
2023-02-02T01:27:03.515Z,2.60
2023-02-02T01:28:03.428Z,2.50
2023-02-02T01:29:03.351Z,2.50
2023-02-02T01:30:03.261Z,2.50
2023-02-02T01:31:03.359Z,2.50
2023-02-02T01:32:03.324Z,2.50
2023-02-02T01:33:03.179Z,2.50
2023-02-02T01:34:03.117Z,2.60
2023-02-02T01:35:03.065Z,2.50
2023-02-02T01:36:03.035Z,2.60
2023-02-02T01:37:03.382Z,2.50
2023-02-02T01:38:03.418Z,2.50
2023-02-02T01:39:03.456Z,2.50
2023-02-02T01:40:03.341Z,2.50
2023-02-02T01:41:03.410Z,2.60
2023-02-02T01:42:03.458Z,2.50
2023-02-02T01:43:03.337Z,2.60
2023-02-02T01:44:03.363Z,2.50
2023-02-02T01:45:03.252Z,2.50
2023-02-02T01:46:03.305Z,2.50
2023-02-02T01:47:03.252Z,2.50
2023-02-02T01:48:03.281Z,2.50
2023-02-02T01:49:03.317Z,2.60
2023-02-02T01:50:03.170Z,2.60
2023-02-02T01:51:03.219Z,2.60
2023-02-02T01:52:03.128Z,2.50
2023-02-02T01:53:03.088Z,2.50
2023-02-02T01:54:03.008Z,2.60
2023-02-02T01:55:03.024Z,2.60
2023-02-02T01:56:03.098Z,2.60
2023-02-02T01:57:03.036Z,2.60
2023-02-02T01:58:02.948Z,2.50
2023-02-02T01:59:03.001Z,2.50
2023-02-02T02:00:03.060Z,2.50
2023-02-02T02:01:03.037Z,2.50
2023-02-02T02:02:03.095Z,2.50
2023-02-02T02:03:02.979Z,2.50
2023-02-02T02:04:02.987Z,2.50
2023-02-02T02:05:03.032Z,2.50
2023-02-02T02:06:03.005Z,2.50
2023-02-02T02:07:03.021Z,2.50
2023-02-02T02:08:02.983Z,2.50
2023-02-02T02:09:02.899Z,2.50
2023-02-02T02:10:02.819Z,2.50
2023-02-02T02:11:02.770Z,2.50
2023-02-02T02:12:02.836Z,2.50
2023-02-02T02:13:02.840Z,2.50
2023-02-02T02:14:02.926Z,2.50
2023-02-02T02:15:02.763Z,2.50
2023-02-02T02:16:02.741Z,2.50
2023-02-02T02:17:02.737Z,2.50
2023-02-02T02:18:02.774Z,2.50
2023-02-02T02:19:02.720Z,2.50
2023-02-02T02:20:02.729Z,2.50
2023-02-02T02:21:02.591Z,2.50
2023-02-02T02:22:03.564Z,2.50
2023-02-02T02:23:03.480Z,2.50
2023-02-02T02:24:03.467Z,2.40
2023-02-02T02:25:03.359Z,2.40
2023-02-02T02:26:03.365Z,2.40
2023-02-02T02:27:03.343Z,2.40
2023-02-02T02:28:03.212Z,2.40
2023-02-02T02:29:03.276Z,2.40
2023-02-02T02:30:03.233Z,2.40
2023-02-02T02:31:03.156Z,2.40
2023-02-02T02:32:03.060Z,2.40
2023-02-02T02:33:02.987Z,2.40
2023-02-02T02:34:02.881Z,2.40
2023-02-02T02:35:02.859Z,2.40
2023-02-02T02:36:02.737Z,2.40
2023-02-02T02:37:02.755Z,2.40
2023-02-02T02:38:02.675Z,2.40
2023-02-02T02:39:02.579Z,2.30
2023-02-02T02:40:03.556Z,2.30
2023-02-02T02:41:03.475Z,2.30
2023-02-02T02:42:03.402Z,2.30
2023-02-02T02:43:03.483Z,2.30
2023-02-02T02:44:03.544Z,2.30
2023-02-02T02:45:03.302Z,2.30
2023-02-02T02:46:03.288Z,2.30
2023-02-02T02:47:03.247Z,2.30
2023-02-02T02:48:03.325Z,2.30
2023-02-02T02:49:03.254Z,2.30
2023-02-02T02:50:03.182Z,2.30
2023-02-02T02:51:03.271Z,2.30
2023-02-02T02:52:03.128Z,2.30
2023-02-02T02:53:03.236Z,2.30
2023-02-02T02:54:03.248Z,2.30
2023-02-02T02:55:03.141Z,2.30
2023-02-02T02:56:03.046Z,2.30
2023-02-02T02:57:03.126Z,2.30
2023-02-02T02:58:02.981Z,2.30
2023-02-02T02:59:03.040Z,2.30
2023-02-02T03:00:03.065Z,2.30
2023-02-02T03:01:02.947Z,2.30
2023-02-02T03:02:02.852Z,2.30
2023-02-02T03:03:02.757Z,2.30
2023-02-02T03:04:02.738Z,2.30
2023-02-02T03:05:02.612Z,2.30
2023-02-02T03:06:03.513Z,2.30
2023-02-02T03:07:03.579Z,2.30
2023-02-02T03:08:03.578Z,2.30
2023-02-02T03:09:03.465Z,2.20
2023-02-02T03:10:03.321Z,2.30
2023-02-02T03:11:03.349Z,2.20
2023-02-02T03:12:03.330Z,2.20
2023-02-02T03:13:03.228Z,2.20
2023-02-02T03:14:03.178Z,2.20
2023-02-02T03:15:03.215Z,2.20
2023-02-02T03:16:03.210Z,2.20
2023-02-02T03:17:03.094Z,2.20
2023-02-02T03:18:03.036Z,2.20
2023-02-02T03:19:02.923Z,2.20
2023-02-02T03:20:03.006Z,2.20
2023-02-02T03:21:02.953Z,2.20
2023-02-02T03:22:03.043Z,2.20
2023-02-02T03:23:02.943Z,2.20
2023-02-02T03:24:02.883Z,2.20
2023-02-02T03:25:02.881Z,2.20
2023-02-02T03:26:02.829Z,2.20
2023-02-02T03:27:02.774Z,2.20
2023-02-02T03:28:02.659Z,2.20
2023-02-02T03:29:02.610Z,2.20
2023-02-02T03:30:03.565Z,2.20
2023-02-02T03:31:03.647Z,2.20
2023-02-02T03:32:03.465Z,2.20
2023-02-02T03:33:03.367Z,2.20
2023-02-02T03:34:03.330Z,2.10
2023-02-02T03:35:03.259Z,2.20
2023-02-02T03:36:03.190Z,2.20
2023-02-02T03:37:03.241Z,2.20
2023-02-02T03:38:03.198Z,2.20
2023-02-02T03:39:03.053Z,2.20
2023-02-02T03:40:03.085Z,2.20
2023-02-02T03:41:03.076Z,2.20
2023-02-02T03:42:03.037Z,2.20
2023-02-02T03:43:02.982Z,2.20
2023-02-02T03:44:02.941Z,2.20
2023-02-02T03:45:03.056Z,2.20
2023-02-02T03:46:03.107Z,2.20
2023-02-02T03:47:02.900Z,2.20
2023-02-02T03:48:02.832Z,2.20
2023-02-02T03:49:02.867Z,2.20
2023-02-02T03:50:02.805Z,2.20
2023-02-02T03:51:02.811Z,2.20
2023-02-02T03:52:02.854Z,2.20
2023-02-02T03:53:02.803Z,2.20
2023-02-02T03:54:02.595Z,2.20
2023-02-02T03:55:02.649Z,2.20
2023-02-02T03:56:02.657Z,2.20
2023-02-02T03:57:02.700Z,2.20
2023-02-02T03:58:02.712Z,2.20
2023-02-02T03:59:02.671Z,2.20
2023-02-02T04:00:02.630Z,2.20
2023-02-02T04:01:02.664Z,2.20
2023-02-02T04:02:02.666Z,2.20
2023-02-02T04:03:02.765Z,2.20
2023-02-02T04:04:02.620Z,2.20
2023-02-02T04:05:02.657Z,2.20
2023-02-02T04:06:03.550Z,2.20
2023-02-02T04:07:03.439Z,2.20
2023-02-02T04:08:03.700Z,2.20
2023-02-02T04:09:03.565Z,2.20
2023-02-02T04:10:03.418Z,2.20
2023-02-02T04:11:03.450Z,2.20
2023-02-02T04:12:03.398Z,2.30
2023-02-02T04:13:03.306Z,2.20
2023-02-02T04:14:03.249Z,2.20
2023-02-02T04:15:03.236Z,2.20
2023-02-02T04:16:03.323Z,2.20
2023-02-02T04:17:03.248Z,2.30
2023-02-02T04:18:03.302Z,2.30
2023-02-02T04:19:03.255Z,2.30
2023-02-02T04:20:03.159Z,2.30
2023-02-02T04:21:03.092Z,2.20
2023-02-02T04:22:03.110Z,2.20
2023-02-02T04:23:03.061Z,2.20
2023-02-02T04:24:03.092Z,2.20
2023-02-02T04:25:03.100Z,2.20
2023-02-02T04:26:02.979Z,2.20
2023-02-02T04:27:02.943Z,2.20
2023-02-02T04:28:02.956Z,2.20
2023-02-02T04:29:02.956Z,2.20
2023-02-02T04:30:03.009Z,2.20
2023-02-02T04:31:02.946Z,2.20
2023-02-02T04:32:02.994Z,2.20
2023-02-02T04:33:02.894Z,2.20
2023-02-02T04:34:02.903Z,2.20
2023-02-02T04:35:02.867Z,2.20
2023-02-02T04:36:02.876Z,2.20
2023-02-02T04:37:02.827Z,2.30
2023-02-02T04:38:02.800Z,2.30
2023-02-02T04:39:02.736Z,2.30
2023-02-02T04:40:02.691Z,2.30
2023-02-02T04:41:03.562Z,2.30
2023-02-02T04:42:03.490Z,2.30
2023-02-02T04:43:03.399Z,2.30
2023-02-02T04:44:03.450Z,2.30
2023-02-02T04:45:03.314Z,2.30
2023-02-02T04:46:03.295Z,2.30
2023-02-02T04:47:03.227Z,2.30
2023-02-02T04:48:03.266Z,2.30
2023-02-02T04:49:03.286Z,2.30
2023-02-02T04:50:03.241Z,2.30
2023-02-02T04:51:03.201Z,2.30
2023-02-02T04:52:03.119Z,2.30
2023-02-02T04:53:03.199Z,2.30
2023-02-02T04:54:03.099Z,2.30
2023-02-02T04:55:03.129Z,2.30
2023-02-02T04:56:03.016Z,2.30
2023-02-02T04:57:02.986Z,2.30
2023-02-02T04:58:02.966Z,2.30
2023-02-02T04:59:02.897Z,2.30
2023-02-02T05:00:02.816Z,2.30
2023-02-02T05:01:02.807Z,2.30
2023-02-02T05:02:02.714Z,2.30
2023-02-02T05:03:02.704Z,2.30
2023-02-02T05:04:02.727Z,2.30
2023-02-02T05:05:02.706Z,2.30
2023-02-02T05:06:02.778Z,2.40
2023-02-02T05:07:02.668Z,2.30
2023-02-02T05:08:02.685Z,2.40
2023-02-02T05:09:02.677Z,2.40
2023-02-02T05:10:02.651Z,2.40
2023-02-02T05:11:02.623Z,2.40
2023-02-02T05:12:02.603Z,2.40
2023-02-02T05:13:02.624Z,2.40
2023-02-02T05:14:03.550Z,2.40
2023-02-02T05:15:03.591Z,2.40
2023-02-02T05:16:03.472Z,2.40
2023-02-02T05:17:03.533Z,2.40
2023-02-02T05:18:03.516Z,2.40
2023-02-02T05:19:03.550Z,2.30
2023-02-02T05:20:03.366Z,2.40
2023-02-02T05:21:03.299Z,2.40
2023-02-02T05:22:03.217Z,2.30
2023-02-02T05:23:03.244Z,2.40
2023-02-02T05:24:03.153Z,2.40
2023-02-02T05:25:03.389Z,2.30
2023-02-02T05:26:03.318Z,2.30
2023-02-02T05:27:03.193Z,2.30
2023-02-02T05:28:03.273Z,2.30
2023-02-02T05:29:03.318Z,2.30
2023-02-02T05:30:03.323Z,2.30
2023-02-02T05:31:03.283Z,2.30
2023-02-02T05:32:02.667Z,2.30
2023-02-02T05:33:02.695Z,2.30
2023-02-02T05:34:02.582Z,2.30
2023-02-02T05:35:03.540Z,2.30
2023-02-02T05:36:03.597Z,2.30
2023-02-02T05:37:03.507Z,2.30
2023-02-02T05:38:03.581Z,2.30
2023-02-02T05:39:03.493Z,2.30
2023-02-02T05:40:03.556Z,2.30
2023-02-02T05:41:03.451Z,2.30
2023-02-02T05:42:03.409Z,2.30
2023-02-02T05:43:03.333Z,2.30
2023-02-02T05:44:03.354Z,2.30
2023-02-02T05:45:03.413Z,2.30
2023-02-02T05:46:03.426Z,2.30
2023-02-02T05:47:03.286Z,2.20
2023-02-02T05:48:03.285Z,2.20
2023-02-02T05:49:03.358Z,2.20
2023-02-02T05:50:03.236Z,2.20
2023-02-02T05:51:03.225Z,2.20
2023-02-02T05:52:03.131Z,2.20
2023-02-02T05:53:03.106Z,2.20
2023-02-02T05:54:02.979Z,2.20
2023-02-02T05:55:02.889Z,2.20
2023-02-02T05:56:02.908Z,2.20
2023-02-02T05:57:02.877Z,2.20
2023-02-02T05:58:02.849Z,2.20
2023-02-02T05:59:02.809Z,2.20
2023-02-02T06:00:02.763Z,2.20
2023-02-02T06:01:02.718Z,2.20
2023-02-02T06:02:02.627Z,2.20
2023-02-02T06:03:03.620Z,2.20
2023-02-02T06:04:03.630Z,2.20
2023-02-02T06:05:03.444Z,2.20
2023-02-02T06:06:05.418Z,2.20
2023-02-02T06:07:03.391Z,2.20
2023-02-02T06:08:03.458Z,2.20
2023-02-02T06:09:03.309Z,2.10
2023-02-02T06:10:03.443Z,2.20
2023-02-02T06:11:03.290Z,2.20
2023-02-02T06:12:03.360Z,2.20
2023-02-02T06:13:03.351Z,2.20
2023-02-02T06:14:03.411Z,2.20
2023-02-02T06:15:03.305Z,2.20
2023-02-02T06:16:03.300Z,2.20
2023-02-02T06:17:03.208Z,2.20
2023-02-02T06:18:03.174Z,2.20
2023-02-02T06:19:03.054Z,2.20
2023-02-02T06:20:03.092Z,2.20
2023-02-02T06:21:03.113Z,2.20
2023-02-02T06:22:03.082Z,2.20
2023-02-02T06:23:03.043Z,2.20
2023-02-02T06:24:02.913Z,2.20
2023-02-02T06:25:02.921Z,2.20
2023-02-02T06:26:02.841Z,2.20
2023-02-02T06:27:02.805Z,2.20
2023-02-02T06:28:02.728Z,2.20
2023-02-02T06:29:02.681Z,2.20
2023-02-02T06:30:02.692Z,2.30
2023-02-02T06:31:02.734Z,2.30
2023-02-02T06:32:03.599Z,2.30
2023-02-02T06:33:03.495Z,2.30
2023-02-02T06:34:03.612Z,2.30
2023-02-02T06:35:03.554Z,2.30
2023-02-02T06:36:03.465Z,2.30
2023-02-02T06:38:03.481Z,2.30
2023-02-02T06:39:03.475Z,2.30
2023-02-02T06:40:03.423Z,2.30
2023-02-02T06:41:03.389Z,2.30
2023-02-02T06:42:15.634Z,2.30
2023-02-02T06:43:03.295Z,2.30
2023-02-02T06:44:03.204Z,2.30
2023-02-02T06:45:03.265Z,2.30
2023-02-02T06:46:03.325Z,2.30
2023-02-02T06:47:03.191Z,2.30
2023-02-02T06:48:03.171Z,2.30
2023-02-02T06:49:03.078Z,2.30
2023-02-02T06:50:02.974Z,2.30
2023-02-02T06:51:02.955Z,2.30
2023-02-02T06:52:02.840Z,2.40
2023-02-02T06:53:02.952Z,2.40
2023-02-02T06:54:02.794Z,2.40
2023-02-02T06:55:02.754Z,2.40
2023-02-02T06:56:02.882Z,2.40
2023-02-02T06:57:02.784Z,2.40
2023-02-02T06:58:02.782Z,2.40
2023-02-02T06:59:02.711Z,2.40
2023-02-02T07:00:02.818Z,2.40
2023-02-02T07:01:02.689Z,2.40
2023-02-02T07:02:02.644Z,2.40
2023-02-02T07:03:03.640Z,2.40
2023-02-02T07:04:02.617Z,2.40
2023-02-02T07:05:02.585Z,2.40
2023-02-02T07:06:02.688Z,2.40
2023-02-02T07:07:02.594Z,2.40
2023-02-02T07:08:02.979Z,2.40
2023-02-02T07:09:03.543Z,2.40
2023-02-02T07:10:03.078Z,2.40
2023-02-02T07:11:09.197Z,2.30
2023-02-02T07:12:02.876Z,2.40
2023-02-02T07:13:02.719Z,2.40
2023-02-02T07:14:02.610Z,2.30
2023-02-02T07:15:02.647Z,2.30
2023-02-02T07:16:02.600Z,2.30
2023-02-02T07:17:03.606Z,2.30
2023-02-02T07:18:02.629Z,2.30
2023-02-02T07:19:02.708Z,2.30
2023-02-02T07:20:02.638Z,2.30
2023-02-02T07:21:02.691Z,2.30
2023-02-02T07:22:02.628Z,2.30
2023-02-02T07:23:02.596Z,2.30
2023-02-02T07:24:02.708Z,2.30
2023-02-02T07:25:03.582Z,2.30
2023-02-02T07:26:02.679Z,2.30
2023-02-02T07:27:02.627Z,2.30
2023-02-02T07:28:03.538Z,2.40
2023-02-02T07:29:03.608Z,2.40
2023-02-02T07:30:03.573Z,2.40
2023-02-02T07:31:03.628Z,2.40
2023-02-02T07:32:03.469Z,2.40
2023-02-02T07:33:03.400Z,2.40
2023-02-02T07:34:03.420Z,2.40
2023-02-02T07:35:03.429Z,2.50
2023-02-02T07:36:03.342Z,2.40
2023-02-02T07:37:03.296Z,2.50
2023-02-02T07:38:03.306Z,2.50
2023-02-02T07:39:03.336Z,2.50
2023-02-02T07:40:03.434Z,2.50
2023-02-02T07:41:03.299Z,2.50
2023-02-02T07:42:03.288Z,2.50
2023-02-02T07:43:03.307Z,2.60
2023-02-02T07:44:03.251Z,2.60
2023-02-02T07:45:27.164Z,2.60
2023-02-02T07:46:03.264Z,2.60
2023-02-02T07:47:03.195Z,2.60
2023-02-02T07:48:03.240Z,2.60
2023-02-02T07:49:03.198Z,2.60
2023-02-02T07:50:03.130Z,2.70
2023-02-02T07:51:03.111Z,2.70
2023-02-02T07:52:03.121Z,2.70
2023-02-02T07:53:03.077Z,2.70
2023-02-02T07:54:02.986Z,2.70
2023-02-02T07:55:13.817Z,2.70
2023-02-02T07:56:02.891Z,2.70
2023-02-02T07:57:02.999Z,2.80
2023-02-02T07:58:03.007Z,2.80
2023-02-02T07:59:02.978Z,2.80
2023-02-02T08:00:02.935Z,2.80
2023-02-02T08:01:02.961Z,2.80
2023-02-02T08:02:02.937Z,2.80
2023-02-02T08:03:02.976Z,2.80
2023-02-02T08:04:03.009Z,2.80
2023-02-02T08:05:02.942Z,2.80
2023-02-02T08:06:02.890Z,2.80
2023-02-02T08:07:02.885Z,2.80
2023-02-02T08:08:02.892Z,2.80
2023-02-02T08:09:02.922Z,2.80
2023-02-02T08:10:02.811Z,2.90
2023-02-02T08:11:02.757Z,2.90
2023-02-02T08:12:02.714Z,2.90
2023-02-02T08:13:02.739Z,2.90
2023-02-02T08:14:02.755Z,2.90
2023-02-02T08:15:02.646Z,2.90
2023-02-02T08:16:02.631Z,2.90
2023-02-02T08:17:02.727Z,2.90
2023-02-02T08:18:03.635Z,2.90
2023-02-02T08:19:03.741Z,2.90
2023-02-02T08:20:03.447Z,2.90
2023-02-02T08:21:03.365Z,2.90
2023-02-02T08:22:03.372Z,3.00
2023-02-02T08:23:03.426Z,3.00
2023-02-02T08:24:03.384Z,3.00
2023-02-02T08:25:03.270Z,3.00
2023-02-02T08:26:03.173Z,3.00
2023-02-02T08:27:03.148Z,3.00
2023-02-02T08:28:02.701Z,3.00
2023-02-02T08:29:03.575Z,3.00
2023-02-02T08:30:03.539Z,3.00
2023-02-02T08:31:03.576Z,3.00
2023-02-02T08:32:03.582Z,3.00
2023-02-02T08:33:03.422Z,3.00
2023-02-02T08:34:03.470Z,3.00
2023-02-02T08:35:03.564Z,3.10
2023-02-02T08:36:03.484Z,3.10
2023-02-02T08:37:03.416Z,3.10
2023-02-02T08:38:03.439Z,3.10
2023-02-02T08:39:03.452Z,3.10
2023-02-02T08:40:03.353Z,3.10
2023-02-02T08:41:03.335Z,3.10
2023-02-02T08:42:03.355Z,3.10
2023-02-02T08:43:03.330Z,3.10
2023-02-02T08:44:03.262Z,3.10
2023-02-02T08:46:00.585Z,3.10
2023-02-02T08:46:05.196Z,3.20
2023-02-02T08:47:03.217Z,3.20
2023-02-02T08:48:11.549Z,3.20
2023-02-02T08:49:03.083Z,3.20
2023-02-02T08:50:02.945Z,3.20
2023-02-02T08:51:02.807Z,3.20
2023-02-02T08:52:02.749Z,3.20
2023-02-02T08:53:02.752Z,3.20
2023-02-02T08:54:02.767Z,3.20
2023-02-02T08:55:02.725Z,3.20
2023-02-02T08:56:02.663Z,3.20
2023-02-02T08:57:02.576Z,3.20
2023-02-02T08:58:03.559Z,3.30
2023-02-02T08:59:03.548Z,3.20
2023-02-02T09:00:03.493Z,3.30
2023-02-02T09:01:03.429Z,3.30
2023-02-02T09:02:03.390Z,3.30
2023-02-02T09:03:03.237Z,3.30
2023-02-02T09:04:03.300Z,3.30
2023-02-02T09:05:03.308Z,3.30
2023-02-02T09:06:03.324Z,3.30
2023-02-02T09:07:03.321Z,3.30
2023-02-02T09:08:03.269Z,3.30
2023-02-02T09:09:03.219Z,3.30
2023-02-02T09:10:03.127Z,3.30
2023-02-02T09:11:03.146Z,3.30
2023-02-02T09:12:03.150Z,3.30
2023-02-02T09:13:03.149Z,3.30
2023-02-02T09:14:03.158Z,3.30
2023-02-02T09:15:03.002Z,3.30
2023-02-02T09:16:02.948Z,3.40
2023-02-02T09:17:03.006Z,3.30
2023-02-02T09:18:02.943Z,3.30
2023-02-02T09:19:02.924Z,3.30
2023-02-02T09:20:02.806Z,3.30
2023-02-02T09:21:02.827Z,3.40
2023-02-02T09:22:02.773Z,3.30
2023-02-02T09:23:02.682Z,3.30
2023-02-02T09:24:02.639Z,3.40
2023-02-02T09:25:02.691Z,3.30
2023-02-02T09:26:03.562Z,3.40
2023-02-02T09:27:03.544Z,3.40
2023-02-02T09:28:03.426Z,3.30
2023-02-02T09:29:03.437Z,3.40
2023-02-02T09:30:03.345Z,3.30
2023-02-02T09:31:03.399Z,3.30
2023-02-02T09:32:03.292Z,3.30
2023-02-02T09:33:03.278Z,3.30
2023-02-02T09:34:03.291Z,3.30
2023-02-02T09:35:03.324Z,3.40
2023-02-02T09:36:03.187Z,3.40
2023-02-02T09:37:03.111Z,3.30
2023-02-02T09:38:03.015Z,3.40
2023-02-02T09:39:02.919Z,3.30
2023-02-02T09:40:02.926Z,3.30
2023-02-02T09:41:02.786Z,3.30
2023-02-02T09:42:02.856Z,3.30
2023-02-02T09:43:02.747Z,3.30
2023-02-02T09:44:02.839Z,3.30
2023-02-02T09:45:02.680Z,3.30
2023-02-02T09:46:02.775Z,3.30
2023-02-02T09:47:02.653Z,3.30
2023-02-02T09:48:03.609Z,3.30
2023-02-02T09:49:03.533Z,3.30
2023-02-02T09:50:03.476Z,3.30
2023-02-02T09:51:03.479Z,3.30
2023-02-02T09:52:03.479Z,3.30
2023-02-02T09:53:03.528Z,3.30
2023-02-02T09:54:03.575Z,3.30
2023-02-02T09:55:03.528Z,3.30
2023-02-02T09:56:03.513Z,3.30
2023-02-02T09:57:03.472Z,3.30
2023-02-02T09:58:03.350Z,3.30
2023-02-02T09:59:17.861Z,3.30
2023-02-02T10:00:03.312Z,3.30
2023-02-02T10:01:03.334Z,3.30
2023-02-02T10:02:03.275Z,3.30
2023-02-02T10:03:03.426Z,3.30
2023-02-02T10:04:03.376Z,3.30
2023-02-02T10:05:03.336Z,3.30
2023-02-02T10:06:03.260Z,3.30
2023-02-02T10:07:03.367Z,3.30
2023-02-02T10:08:03.384Z,3.30
2023-02-02T10:09:03.423Z,3.30
2023-02-02T10:10:03.480Z,3.30
2023-02-02T10:11:03.459Z,3.30
2023-02-02T10:12:03.412Z,3.30
2023-02-02T10:13:03.296Z,3.30
2023-02-02T10:14:03.293Z,3.30
2023-02-02T10:15:03.384Z,3.30
2023-02-02T10:16:03.441Z,3.30
2023-02-02T10:17:03.371Z,3.30
2023-02-02T10:18:05.797Z,3.30
2023-02-02T10:19:03.437Z,3.30
2023-02-02T10:20:03.350Z,3.30
2023-02-02T10:21:03.454Z,3.40
2023-02-02T10:22:03.322Z,3.40
2023-02-02T10:23:03.213Z,3.40
2023-02-02T10:24:03.128Z,3.40
2023-02-02T10:25:03.123Z,3.40
2023-02-02T10:26:03.146Z,3.40
2023-02-02T10:27:03.189Z,3.40
2023-02-02T10:28:03.052Z,3.40
2023-02-02T10:29:02.989Z,3.40
2023-02-02T10:30:02.940Z,3.40
2023-02-02T10:31:03.124Z,3.40
2023-02-02T10:32:03.080Z,3.40
2023-02-02T10:33:02.870Z,3.40
2023-02-02T10:34:02.899Z,3.40
2023-02-02T10:35:12.877Z,3.40
2023-02-02T10:36:02.902Z,3.40
2023-02-02T10:37:02.820Z,3.30
2023-02-02T10:38:02.819Z,3.30
2023-02-02T10:39:02.725Z,3.40
2023-02-02T10:40:02.884Z,3.30
2023-02-02T10:41:02.767Z,3.30
2023-02-02T10:42:02.690Z,3.30
2023-02-02T10:43:02.626Z,3.30
2023-02-02T10:44:03.557Z,3.30
2023-02-02T10:45:03.539Z,3.30
2023-02-02T10:46:03.497Z,3.30
2023-02-02T10:47:03.389Z,3.30
2023-02-02T10:48:03.399Z,3.30
2023-02-02T10:49:03.348Z,3.30
2023-02-02T10:50:03.369Z,3.30
2023-02-02T10:51:03.441Z,3.20
2023-02-02T10:52:03.401Z,3.20
2023-02-02T10:53:03.444Z,3.20
2023-02-02T10:54:03.294Z,3.20
2023-02-02T10:55:04.397Z,3.20
2023-02-02T10:56:03.278Z,3.20
2023-02-02T10:57:03.235Z,3.20
2023-02-02T10:58:03.216Z,3.20
2023-02-02T10:59:03.169Z,3.20
2023-02-02T11:00:03.150Z,3.20
2023-02-02T11:01:03.107Z,3.20
2023-02-02T11:02:15.318Z,3.20
2023-02-02T11:03:03.099Z,3.10
2023-02-02T11:04:02.998Z,3.10
2023-02-02T11:05:03.019Z,3.10
2023-02-02T11:06:03.006Z,3.10
2023-02-02T11:07:02.967Z,3.10
2023-02-02T11:08:02.994Z,3.10
2023-02-02T11:09:02.998Z,3.10
2023-02-02T11:10:02.751Z,3.10
2023-02-02T11:11:02.715Z,3.10
2023-02-02T11:12:02.616Z,3.10
2023-02-02T11:13:02.670Z,3.10
2023-02-02T11:14:03.582Z,3.00
2023-02-02T11:15:03.528Z,3.00
2023-02-02T11:16:05.733Z,3.00
2023-02-02T11:17:03.507Z,3.00
2023-02-02T11:18:03.555Z,3.10
2023-02-02T11:19:03.458Z,3.00
2023-02-02T11:20:03.455Z,3.10
2023-02-02T11:21:03.487Z,3.00
2023-02-02T11:22:03.438Z,3.00
2023-02-02T11:23:03.456Z,3.00
2023-02-02T11:24:03.411Z,3.00
2023-02-02T11:25:03.360Z,3.00
2023-02-02T11:26:03.392Z,3.10
2023-02-02T11:27:03.327Z,3.10
2023-02-02T11:28:03.224Z,3.10
2023-02-02T11:29:03.521Z,3.10
2023-02-02T11:30:03.468Z,3.10
2023-02-02T11:31:03.473Z,3.10
2023-02-02T11:32:03.443Z,3.10
2023-02-02T11:33:03.346Z,3.10
2023-02-02T11:34:03.247Z,3.10
2023-02-02T11:35:03.333Z,3.10
2023-02-02T11:36:03.221Z,3.10
2023-02-02T11:37:03.219Z,3.10
2023-02-02T11:38:03.301Z,3.10
2023-02-02T11:39:03.303Z,3.10
2023-02-02T11:40:03.329Z,3.10
2023-02-02T11:41:03.291Z,3.10
2023-02-02T11:42:03.433Z,3.10
2023-02-02T11:43:03.494Z,3.10
2023-02-02T11:44:03.412Z,3.10
2023-02-02T11:45:03.312Z,3.10
2023-02-02T11:46:03.452Z,3.10
2023-02-02T11:47:03.296Z,3.10
2023-02-02T11:48:03.382Z,3.10
2023-02-02T11:49:03.337Z,3.10
2023-02-02T11:50:03.595Z,3.10
2023-02-02T11:51:03.404Z,3.10
2023-02-02T11:52:03.216Z,3.10
2023-02-02T11:53:02.842Z,3.10
2023-02-02T11:54:02.795Z,3.10
2023-02-02T11:55:02.856Z,3.10
2023-02-02T11:56:02.735Z,3.10
2023-02-02T11:57:02.787Z,3.10
2023-02-02T11:58:02.631Z,3.10
2023-02-02T11:59:02.562Z,3.10
2023-02-02T12:00:03.582Z,3.10
2023-02-02T12:01:02.665Z,3.10
2023-02-02T12:02:03.547Z,3.10
2023-02-02T12:03:03.524Z,3.10
2023-02-02T12:04:03.596Z,3.10
2023-02-02T12:05:03.586Z,3.10
2023-02-02T12:06:03.561Z,3.10
2023-02-02T12:07:03.518Z,3.10
2023-02-02T12:08:03.417Z,3.20
2023-02-02T12:09:03.465Z,3.20
2023-02-02T12:10:03.496Z,3.20
2023-02-02T12:11:03.443Z,3.20
2023-02-02T12:12:02.683Z,3.20
2023-02-02T12:13:02.603Z,3.20
2023-02-02T12:14:02.616Z,3.20
2023-02-02T12:15:02.653Z,3.20
2023-02-02T12:16:03.561Z,3.20
2023-02-02T12:17:03.511Z,3.20
2023-02-02T12:18:03.508Z,3.20
2023-02-02T12:19:03.472Z,3.20
2023-02-02T12:20:03.380Z,3.20
2023-02-02T12:21:03.410Z,3.20
2023-02-02T12:22:03.301Z,3.20
2023-02-02T12:23:03.258Z,3.20
2023-02-02T12:24:03.177Z,3.30
2023-02-02T12:25:03.055Z,3.30
2023-02-02T12:26:03.079Z,3.30
2023-02-02T12:27:03.167Z,3.30
2023-02-02T12:28:03.142Z,3.30
2023-02-02T12:29:03.201Z,3.30
2023-02-02T12:30:03.197Z,3.30
2023-02-02T12:31:03.114Z,3.30
2023-02-02T12:32:03.166Z,3.30
2023-02-02T12:33:03.027Z,3.30
2023-02-02T12:34:02.969Z,3.30
2023-02-02T12:35:03.045Z,3.30
2023-02-02T12:36:02.995Z,3.40
2023-02-02T12:37:02.944Z,3.40
2023-02-02T12:38:02.787Z,3.40
2023-02-02T12:39:02.731Z,3.40
2023-02-02T12:40:02.696Z,3.40
2023-02-02T12:41:03.585Z,3.40
2023-02-02T12:42:03.182Z,3.40
2023-02-02T12:43:03.090Z,3.40
2023-02-02T12:44:03.042Z,3.40
2023-02-02T12:45:03.007Z,3.50
2023-02-02T12:46:03.043Z,3.50
2023-02-02T12:47:03.039Z,3.50
2023-02-02T12:48:03.078Z,3.50
2023-02-02T12:49:03.062Z,3.50
2023-02-02T12:50:02.929Z,3.50
2023-02-02T12:51:02.869Z,3.50
2023-02-02T12:52:02.980Z,3.50
2023-02-02T12:53:02.865Z,3.50
2023-02-02T12:54:32.475Z,3.50
2023-02-02T12:55:03.509Z,3.50
2023-02-02T12:56:03.428Z,3.50
2023-02-02T12:57:03.546Z,3.50
2023-02-02T12:58:04.625Z,3.50
2023-02-02T12:59:03.459Z,3.50
2023-02-02T13:00:03.401Z,3.50
2023-02-02T13:01:03.475Z,3.50
2023-02-02T13:02:03.326Z,3.60
2023-02-02T13:03:03.194Z,3.60
2023-02-02T13:04:03.150Z,3.60
2023-02-02T13:05:03.119Z,3.60
2023-02-02T13:06:03.047Z,3.60
2023-02-02T13:07:03.039Z,3.60
2023-02-02T13:08:03.034Z,3.60
2023-02-02T13:09:02.931Z,3.60
2023-02-02T13:10:02.851Z,3.60
2023-02-02T13:11:02.767Z,3.60
2023-02-02T13:12:03.571Z,3.60
2023-02-02T13:13:02.589Z,3.60
2023-02-02T13:14:02.610Z,3.60
2023-02-02T13:15:03.549Z,3.60
2023-02-02T13:16:03.502Z,3.60
2023-02-02T13:17:03.546Z,3.60
2023-02-02T13:18:03.471Z,3.60
2023-02-02T13:19:03.545Z,3.60